Time;durP1;ratioP1;P1;durP2;ratioP2;P2;SDS_P1;SDS_P2;PMS_P1;PMS_P2;Temp;Humidity;BMP_temperature;BMP_pressure;BME280_temperature;BME280_humidity;BME280_pressure;Samples;Min_cycle;Max_cycle;Signal;HPM_P1;HPM_P2
2022/09/01 00:00:37;;;;;;;8.70;7.80;;;;;;;-144.22;100.00;60274.75;6207337;28;20633;-40
2022/09/01 00:03:39;;;;;;;7.70;7.00;;;;;;;-144.22;100.00;60274.75;6205872;28;20236;-40
2022/09/01 00:06:42;;;;;;;9.70;8.70;;;;;;;-144.22;100.00;60274.75;6207269;28;20604;-40
2022/09/01 00:09:44;;;;;;;9.40;7.50;;;;;;;-144.22;100.00;60274.75;6206330;28;20259;-40
2022/09/01 00:12:46;;;;;;;9.30;7.47;;;;;;;-144.22;100.00;60274.75;6207524;28;20244;-41
2022/09/01 00:15:48;;;;;;;8.70;7.80;;;;;;;-144.22;100.00;60274.75;6207100;28;20286;-41
2022/09/01 00:18:53;;;;;;;9.77;8.60;;;;;;;-144.22;100.00;60274.75;6206260;28;20232;-41
2022/09/01 00:21:56;;;;;;;11.43;8.43;;;;;;;-144.22;100.00;60274.75;6184108;28;20241;-40
2022/09/01 00:25:00;;;;;;;9.30;8.33;;;;;;;-144.22;100.00;60274.75;6193236;28;20303;-40
2022/09/01 00:28:03;;;;;;;10.10;8.57;;;;;;;-144.22;100.00;60274.75;6206664;28;20610;-40
2022/09/01 00:31:07;;;;;;;9.13;8.23;;;;;;;-144.22;100.00;60274.75;6205560;28;20224;-42
2022/09/01 00:34:10;;;;;;;9.63;8.40;;;;;;;-144.22;100.00;60274.75;6207187;28;20236;-41
2022/09/01 00:37:12;;;;;;;9.70;8.90;;;;;;;-144.22;100.00;60274.75;6205330;28;20236;-40
2022/09/01 00:40:16;;;;;;;10.67;8.60;;;;;;;-144.22;100.00;60274.75;6206489;28;20243;-40
2022/09/01 00:43:39;;;;;;;9.20;8.33;;;;;;;-144.22;100.00;60274.75;6207583;28;20236;-41
2022/09/01 00:46:48;;;;;;;9.30;8.40;;;;;;;-144.22;100.00;60274.75;6192601;28;20234;-40
2022/09/01 00:49:57;;;;;;;10.23;7.93;;;;;;;-144.22;100.00;60274.75;6187585;28;20241;-40
2022/09/01 00:52:59;;;;;;;10.87;9.27;;;;;;;-144.22;100.00;60274.75;6195503;28;20236;-40
2022/09/01 00:56:04;;;;;;;8.10;7.43;;;;;;;-144.22;100.00;60274.75;6206113;28;20254;-40
2022/09/01 00:59:10;;;;;;;9.27;8.37;;;;;;;-144.22;100.00;60274.75;6204716;28;20220;-40
2022/09/01 01:02:12;;;;;;;9.73;8.83;;;;;;;-144.22;100.00;60274.75;6201794;28;20236;-40
2022/09/01 01:05:15;;;;;;;9.83;8.83;;;;;;;-144.22;100.00;60274.75;6183118;28;20229;-40
2022/09/01 01:08:18;;;;;;;9.67;8.67;;;;;;;-144.22;100.00;60274.75;6205349;28;20881;-42
2022/09/01 01:11:21;;;;;;;9.23;8.30;;;;;;;-144.22;100.00;60274.75;6205821;28;20318;-40
2022/09/01 01:14:23;;;;;;;8.90;8.00;;;;;;;-144.22;100.00;60274.75;6205716;28;20247;-40
2022/09/01 01:17:25;;;;;;;10.50;8.67;;;;;;;-144.22;100.00;60274.75;6204072;28;20240;-40
2022/09/01 01:24:01;;;;;;;8.77;7.87;;;;;;;-144.22;100.00;60274.75;6172405;28;20754;-40
2022/09/01 01:27:04;;;;;;;10.97;7.77;;;;;;;-144.22;100.00;60274.75;6143296;28;20238;-40
2022/09/01 01:30:09;;;;;;;11.13;8.00;;;;;;;-144.22;100.00;60274.75;6187964;28;20285;-40
2022/09/01 01:33:12;;;;;;;9.90;7.67;;;;;;;-144.22;100.00;60274.75;6203313;28;20236;-41
2022/09/01 01:36:31;;;;;;;8.80;8.00;;;;;;;-144.22;100.00;60274.75;6204532;28;20216;-41
2022/09/01 01:39:39;;;;;;;8.37;7.57;;;;;;;-144.22;100.00;60274.75;6204525;28;20220;-40
2022/09/01 01:42:49;;;;;;;8.93;7.03;;;;;;;-144.22;100.00;60274.75;6204073;28;20228;-42
2022/09/01 01:45:53;;;;;;;9.00;8.30;;;;;;;-144.22;100.00;60274.75;6203717;28;20249;-41
2022/09/01 01:49:03;;;;;;;9.17;8.37;;;;;;;-144.22;100.00;60274.75;6206557;28;20895;-40
2022/09/01 01:52:06;;;;;;;9.00;7.63;;;;;;;-144.22;100.00;60274.75;6198338;28;20695;-41
2022/09/01 01:55:11;;;;;;;9.73;8.67;;;;;;;-144.22;100.00;60274.75;6204227;28;20747;-41
2022/09/01 01:58:20;;;;;;;9.87;8.37;;;;;;;-144.22;100.00;60274.75;6205075;28;20240;-40
2022/09/01 02:01:27;;;;;;;8.23;6.90;;;;;;;-144.22;100.00;60274.75;6203399;28;20232;-40
2022/09/01 02:04:32;;;;;;;8.07;7.27;;;;;;;-144.22;100.00;60274.75;6187047;28;20655;-40
2022/09/01 02:07:41;;;;;;;7.57;6.87;;;;;;;-144.22;100.00;60274.75;6206156;28;20243;-40
2022/09/01 02:10:47;;;;;;;7.73;7.03;;;;;;;-144.22;100.00;60274.75;6204833;28;20229;-40
2022/09/01 02:13:49;;;;;;;9.73;7.07;;;;;;;-144.22;100.00;60274.75;6202517;28;20239;-40
2022/09/01 02:16:54;;;;;;;9.30;7.10;;;;;;;-144.22;100.00;60274.75;6203174;28;20232;-40
2022/09/01 02:19:57;;;;;;;7.90;7.10;;;;;;;-144.22;100.00;60274.75;6196974;28;20239;-40
2022/09/01 02:23:08;;;;;;;6.43;5.83;;;;;;;-144.22;100.00;60274.75;6180998;28;20453;-41
2022/09/01 02:26:11;;;;;;;6.80;6.20;;;;;;;-144.22;100.00;60274.75;6203701;28;20228;-40
2022/09/01 02:29:21;;;;;;;6.23;5.73;;;;;;;-144.22;100.00;60274.75;6207151;28;20251;-40
2022/09/01 02:32:23;;;;;;;6.70;6.10;;;;;;;-144.22;100.00;60274.75;6212865;28;20441;-40
2022/09/01 02:35:36;;;;;;;6.10;5.53;;;;;;;-144.22;100.00;60274.75;6210576;28;20227;-40
2022/09/01 02:38:44;;;;;;;6.33;5.83;;;;;;;-144.22;100.00;60274.75;6208329;28;20473;-41
2022/09/01 02:41:55;;;;;;;5.17;4.77;;;;;;;-144.22;100.00;60274.75;6208105;28;20239;-40
2022/09/01 02:45:02;;;;;;;5.87;5.27;;;;;;;-144.22;100.00;60274.75;6183508;28;20229;-41
2022/09/01 02:48:09;;;;;;;5.90;5.30;;;;;;;-144.22;100.00;60274.75;6208850;28;20204;-42
2022/09/01 02:51:16;;;;;;;8.03;6.27;;;;;;;-144.22;100.00;60274.75;6191407;28;20691;-40
2022/09/01 02:54:21;;;;;;;6.77;6.07;;;;;;;-144.22;100.00;60274.75;6204473;28;20240;-40
2022/09/01 02:57:23;;;;;;;7.60;6.37;;;;;;;-144.22;100.00;60274.75;6207680;28;20221;-40
2022/09/01 03:00:32;;;;;;;6.43;5.77;;;;;;;-144.22;100.00;60274.75;6206393;28;20224;-40
2022/09/01 03:03:34;;;;;;;7.40;6.70;;;;;;;-144.22;100.00;60274.75;6135780;28;20355;-40
2022/09/01 03:06:37;;;;;;;7.43;6.67;;;;;;;-144.22;100.00;60274.75;6207214;28;20960;-40
2022/09/01 03:09:41;;;;;;;7.80;6.57;;;;;;;-144.22;100.00;60274.75;6206682;28;20237;-40
2022/09/01 03:12:43;;;;;;;8.73;6.90;;;;;;;-144.22;100.00;60274.75;6207854;28;20237;-40
2022/09/01 03:15:49;;;;;;;7.80;6.87;;;;;;;-144.22;100.00;60274.75;6206495;28;20610;-40
2022/09/01 03:18:52;;;;;;;7.67;6.87;;;;;;;-144.22;100.00;60274.75;6206810;28;20607;-42
2022/09/01 03:21:58;;;;;;;7.40;6.27;;;;;;;-144.22;100.00;60274.75;6206461;28;20661;-40
2022/09/01 03:25:05;;;;;;;9.60;6.80;;;;;;;-144.22;100.00;60274.75;6206801;28;20263;-40
2022/09/01 03:28:08;;;;;;;7.57;6.77;;;;;;;-144.22;100.00;60274.75;6209205;28;20235;-40
2022/09/01 03:31:11;;;;;;;8.10;6.23;;;;;;;-144.22;100.00;60274.75;6206464;28;20250;-40
2022/09/01 03:34:15;;;;;;;8.63;6.50;;;;;;;-144.22;100.00;60274.75;6205780;28;20248;-41
2022/09/01 03:37:22;;;;;;;10.10;6.90;;;;;;;-144.22;100.00;60274.75;6207363;28;20700;-40
2022/09/01 03:40:31;;;;;;;9.30;6.90;;;;;;;-144.22;100.00;60274.75;6206589;28;20221;-40
2022/09/01 03:43:33;;;;;;;7.53;6.30;;;;;;;-144.22;100.00;60274.75;6206527;28;20319;-40
2022/09/01 03:46:39;;;;;;;7.27;6.57;;;;;;;-144.22;100.00;60274.75;6206336;28;20240;-40
2022/09/01 03:49:42;;;;;;;7.97;6.60;;;;;;;-144.22;100.00;60274.75;6195768;28;20239;-40
2022/09/01 03:52:48;;;;;;;7.00;6.30;;;;;;;-144.22;100.00;60274.75;6201378;28;20668;-40
2022/09/01 03:55:51;;;;;;;7.73;6.57;;;;;;;-144.22;100.00;60274.75;6207906;28;20704;-41
2022/09/01 03:58:56;;;;;;;6.50;5.63;;;;;;;-144.22;100.00;60274.75;6206441;28;20238;-40
2022/09/01 04:02:28;;;;;;;6.57;5.97;;;;;;;-144.22;100.00;60274.75;6206248;28;20763;-40
2022/09/01 04:05:32;;;;;;;6.63;6.03;;;;;;;-144.22;100.00;60274.75;6205371;28;20730;-40
2022/09/01 04:08:36;;;;;;;6.47;5.73;;;;;;;-144.22;100.00;60274.75;6204997;28;20228;-41
2022/09/01 04:11:40;;;;;;;7.67;5.97;;;;;;;-144.22;100.00;60274.75;6205154;28;20559;-40
2022/09/01 04:14:48;;;;;;;6.17;5.57;;;;;;;-144.22;100.00;60274.75;6205107;28;20244;-40
2022/09/01 04:21:12;;;;;;;6.27;5.23;;;;;;;-144.22;100.00;60274.75;6166393;28;20331;-40
2022/09/01 04:24:17;;;;;;;7.60;6.00;;;;;;;-144.22;100.00;60274.75;6203692;28;20231;-40
2022/09/01 04:27:25;;;;;;;7.13;5.93;;;;;;;-144.22;100.00;60274.75;6210070;28;20604;-41
2022/09/01 04:30:30;;;;;;;6.80;6.10;;;;;;;-144.22;100.00;60274.75;6187586;28;20323;-42
2022/09/01 04:33:45;;;;;;;9.17;6.30;;;;;;;-144.22;100.00;60274.75;6194812;28;20239;-40
2022/09/01 04:36:53;;;;;;;6.90;6.20;;;;;;;-144.22;100.00;60274.75;6204812;28;20247;-40
2022/09/01 04:39:56;;;;;;;8.47;5.90;;;;;;;-144.22;100.00;60274.75;6204147;28;20247;-40
2022/09/01 04:42:59;;;;;;;6.90;5.97;;;;;;;-144.22;100.00;60274.75;6204393;28;20242;-41
2022/09/01 04:46:02;;;;;;;7.43;5.37;;;;;;;-144.22;100.00;60274.75;6203589;28;20570;-41
2022/09/01 04:49:07;;;;;;;6.00;5.43;;;;;;;-144.22;100.00;60274.75;6203982;28;20236;-40
2022/09/01 04:52:14;;;;;;;6.13;5.50;;;;;;;-144.22;100.00;60274.75;6155747;28;20238;-40
2022/09/01 04:55:16;;;;;;;6.60;5.60;;;;;;;-144.22;100.00;60274.75;6202106;28;20765;-41
2022/09/01 04:58:20;;;;;;;7.23;4.47;;;;;;;-144.22;100.00;60274.75;6205940;28;20554;-41
2022/09/01 05:01:26;;;;;;;7.73;4.70;;;;;;;-144.22;100.00;60274.75;6204689;28;20224;-40
2022/09/01 05:04:32;;;;;;;5.67;4.77;;;;;;;-144.22;100.00;60274.75;6203675;28;20236;-41
2022/09/01 05:07:36;;;;;;;5.57;5.03;;;;;;;-144.22;100.00;60274.75;6203383;28;20232;-40
2022/09/01 05:10:44;;;;;;;5.63;4.90;;;;;;;-144.22;100.00;60274.75;6203995;28;20224;-40
2022/09/01 05:14:00;;;;;;;4.60;4.13;;;;;;;-144.22;100.00;60274.75;6203276;28;20696;-40
2022/09/01 05:17:09;;;;;;;5.77;4.60;;;;;;;-144.22;100.00;60274.75;6204592;28;20235;-40
2022/09/01 05:20:12;;;;;;;5.33;3.87;;;;;;;-144.22;100.00;60274.75;6196459;28;20240;-40
2022/09/01 05:23:18;;;;;;;4.97;4.50;;;;;;;-144.22;100.00;60274.75;6202909;28;20228;-41
2022/09/01 05:26:24;;;;;;;4.73;4.33;;;;;;;-144.22;100.00;60274.75;6204058;28;20318;-40
2022/09/01 05:29:28;;;;;;;5.63;4.50;;;;;;;-144.22;100.00;60274.75;6202834;28;20232;-41
2022/09/01 05:32:47;;;;;;;5.87;4.10;;;;;;;-144.22;100.00;60274.75;6205233;28;20614;-40
2022/09/01 05:36:00;;;;;;;4.63;4.23;;;;;;;-144.22;100.00;60274.75;6202999;28;20239;-40
2022/09/01 05:39:05;;;;;;;5.00;4.20;;;;;;;-144.22;100.00;60274.75;6178274;28;20240;-40
2022/09/01 05:42:07;;;;;;;4.40;4.00;;;;;;;-144.22;100.00;60274.75;6203166;28;20208;-40
2022/09/01 05:45:13;;;;;;;4.73;4.20;;;;;;;-144.22;100.00;60274.75;6202098;28;20280;-40
2022/09/01 05:48:20;;;;;;;4.73;4.17;;;;;;;-144.22;100.00;60274.75;6202941;28;20298;-41
2022/09/01 05:51:34;;;;;;;8.17;4.43;;;;;;;-144.22;100.00;60274.75;6188420;28;20276;-40
2022/09/01 05:54:48;;;;;;;6.83;3.97;;;;;;;-144.22;100.00;60274.75;6203349;28;20630;-41
2022/09/01 05:57:53;;;;;;;5.90;3.53;;;;;;;-144.22;100.00;60274.75;6202590;28;20243;-41
2022/09/01 06:00:57;;;;;;;3.33;3.03;;;;;;;-144.22;100.00;60274.75;6154447;28;20237;-40
2022/09/01 06:04:04;;;;;;;4.53;3.40;;;;;;;-144.22;100.00;60274.75;6174990;28;20233;-40
2022/09/01 06:07:13;;;;;;;4.87;3.90;;;;;;;-144.22;100.00;60274.75;6196722;28;20273;-41
2022/09/01 06:10:25;;;;;;;4.07;3.00;;;;;;;-144.22;100.00;60274.75;6204274;28;20676;-40
2022/09/01 06:13:29;;;;;;;5.83;3.30;;;;;;;-144.22;100.00;60274.75;6201678;28;20597;-40
2022/09/01 06:16:32;;;;;;;3.73;3.33;;;;;;;-144.22;100.00;60274.75;6203250;28;20270;-40
2022/09/01 06:19:34;;;;;;;4.13;3.10;;;;;;;-144.22;100.00;60274.75;6198919;28;20738;-40
2022/09/01 06:22:39;;;;;;;4.00;2.83;;;;;;;-144.22;100.00;60274.75;6183033;28;20599;-40
2022/09/01 06:25:46;;;;;;;2.97;2.73;;;;;;;-144.22;100.00;60274.75;6202087;28;20232;-40
2022/09/01 06:28:53;;;;;;;5.97;3.23;;;;;;;-144.22;100.00;60274.75;6202092;28;20612;-40
2022/09/01 06:31:58;;;;;;;5.27;2.87;;;;;;;-144.22;100.00;60274.75;6154090;28;20261;-40
2022/09/01 06:35:04;;;;;;;4.30;2.83;;;;;;;-144.22;100.00;60274.75;6197827;28;20243;-40
2022/09/01 06:38:09;;;;;;;4.03;2.90;;;;;;;-144.22;100.00;60274.75;6202179;28;20279;-42
2022/09/01 06:41:18;;;;;;;4.43;2.53;;;;;;;-144.22;100.00;60274.75;6203579;28;20235;-41
2022/09/01 06:44:24;;;;;;;2.40;2.20;;;;;;;-144.22;100.00;60274.75;6200788;28;20596;-40
2022/09/01 06:47:36;;;;;;;3.17;2.50;;;;;;;-144.22;100.00;60274.75;6202274;28;20264;-40
2022/09/01 06:50:38;;;;;;;4.30;2.63;;;;;;;-144.22;100.00;60274.75;6191982;28;20221;-40
2022/09/01 06:54:01;;;;;;;3.43;2.60;;;;;;;-144.22;100.00;60274.75;6187462;28;20241;-40
2022/09/01 06:57:06;;;;;;;2.40;2.20;;;;;;;-144.22;100.00;60274.75;6177062;28;20259;-40
2022/09/01 07:00:30;;;;;;;3.07;2.10;;;;;;;-144.22;100.00;60274.75;6203326;28;20726;-41
2022/09/01 07:03:35;;;;;;;3.27;2.10;;;;;;;-144.22;100.00;60274.75;6182881;28;20375;-40
2022/09/01 07:07:00;;;;;;;2.93;2.30;;;;;;;-144.22;100.00;60274.75;6202426;28;20240;-40
2022/09/01 07:10:55;;;;;;;4.87;2.20;;;;;;;-144.22;100.00;60274.75;6202836;28;20233;-41
2022/09/01 07:14:18;;;;;;;2.63;2.43;;;;;;;-144.22;100.00;60274.75;6204936;28;20319;-42
2022/09/01 07:17:20;;;;;;;4.10;2.20;;;;;;;-144.22;100.00;60274.75;6207557;28;20374;-41
2022/09/01 07:20:28;;;;;;;4.27;1.90;;;;;;;-144.22;100.00;60274.75;6196382;28;20240;-41
2022/09/01 07:23:31;;;;;;;6.13;1.93;;;;;;;-144.22;100.00;60274.75;6207024;28;20235;-40
2022/09/01 07:26:49;;;;;;;3.50;2.00;;;;;;;-144.22;100.00;60274.75;6205225;28;20270;-40
2022/09/01 07:29:52;;;;;;;2.23;1.87;;;;;;;-144.22;100.00;60274.75;6205892;28;20622;-40
2022/09/01 07:32:54;;;;;;;3.73;2.10;;;;;;;-144.22;100.00;60274.75;6205778;28;20229;-41
2022/09/01 07:35:58;;;;;;;2.30;1.80;;;;;;;-144.22;100.00;60274.75;6208992;28;20732;-41
2022/09/01 07:39:20;;;;;;;2.43;2.23;;;;;;;-144.22;100.00;60274.75;6205738;28;20244;-40
2022/09/01 07:43:04;;;;;;;2.10;1.77;;;;;;;-144.22;100.00;60274.75;6211594;28;20240;-40
2022/09/01 07:46:27;;;;;;;3.70;1.73;;;;;;;-144.22;100.00;60274.75;6207014;28;20233;-40
2022/09/01 07:49:52;;;;;;;4.10;1.50;;;;;;;-144.22;100.00;60274.75;6198026;28;20229;-40
2022/09/01 07:53:17;;;;;;;2.27;1.60;;;;;;;-144.22;100.00;60274.75;6193818;28;20228;-42
2022/09/01 07:56:22;;;;;;;2.27;1.50;;;;;;;-144.22;100.00;60274.75;6206200;28;20612;-41
2022/09/01 07:59:26;;;;;;;2.17;1.20;;;;;;;-144.22;100.00;60274.75;6204893;28;20227;-40
2022/09/01 08:02:45;;;;;;;1.90;1.20;;;;;;;-144.22;100.00;60274.75;6203899;28;20249;-42
2022/09/01 08:05:56;;;;;;;2.37;1.23;;;;;;;-144.22;100.00;60274.75;6203043;28;20259;-42
2022/09/01 08:09:04;;;;;;;2.53;1.43;;;;;;;-144.22;100.00;60274.75;6189522;28;20225;-42
2022/09/01 08:12:08;;;;;;;3.57;1.70;;;;;;;-144.22;100.00;60274.75;6204006;28;20231;-41
2022/09/01 08:15:19;;;;;;;2.13;1.20;;;;;;;-144.22;100.00;60274.75;6205883;28;20225;-41
2022/09/01 08:18:43;;;;;;;2.00;1.43;;;;;;;-144.22;100.00;60274.75;6204403;28;20249;-40
2022/09/01 08:22:01;;;;;;;2.93;1.53;;;;;;;-144.22;100.00;60274.75;6203032;28;20701;-41
2022/09/01 08:25:17;;;;;;;1.43;1.10;;;;;;;-144.22;100.00;60274.75;6204449;28;20232;-40
2022/09/01 08:28:26;;;;;;;1.37;1.17;;;;;;;-144.22;100.00;60274.75;6203497;28;20233;-41
2022/09/01 08:31:31;;;;;;;1.97;1.23;;;;;;;-144.22;100.00;60274.75;6206012;28;20598;-40
2022/09/01 08:34:36;;;;;;;2.93;1.47;;;;;;;-144.22;100.00;60274.75;6203866;28;20611;-41
2022/09/01 08:37:39;;;;;;;4.00;1.20;;;;;;;-144.22;100.00;60274.75;6205385;28;20228;-41
2022/09/01 08:40:53;;;;;;;1.67;1.20;;;;;;;-144.22;100.00;60274.75;6203025;28;21018;-41
2022/09/01 08:44:23;;;;;;;3.43;1.37;;;;;;;-144.22;100.00;60274.75;6205344;28;20270;-41
2022/09/01 08:47:30;;;;;;;1.93;1.10;;;;;;;-144.22;100.00;60274.75;6205445;28;20251;-40
2022/09/01 08:51:02;;;;;;;1.27;0.87;;;;;;;-144.22;100.00;60274.75;6193607;28;20570;-42
2022/09/01 08:54:52;;;;;;;3.63;1.23;;;;;;;-144.22;100.00;60274.75;6205384;28;20237;-41
2022/09/01 08:57:56;;;;;;;1.37;1.00;;;;;;;-144.22;100.00;60274.75;6202828;28;20232;-42
2022/09/01 09:01:07;;;;;;;2.73;1.03;;;;;;;-144.22;100.00;60274.75;6205494;28;20240;-41
2022/09/01 09:04:17;;;;;;;2.87;1.20;;;;;;;-144.22;100.00;60274.75;6204121;28;20240;-41
2022/09/01 09:07:44;;;;;;;2.07;0.90;;;;;;;-144.22;100.00;60274.75;6205624;28;20229;-41
2022/09/01 09:11:05;;;;;;;2.47;1.10;;;;;;;-144.22;100.00;60274.75;6204018;28;20243;-40
2022/09/01 09:14:26;;;;;;;2.77;1.17;;;;;;;-144.22;100.00;60274.75;6205355;28;20244;-41
2022/09/01 09:17:43;;;;;;;1.10;0.87;;;;;;;-144.22;100.00;60274.75;6204224;28;20255;-41
2022/09/01 09:20:46;;;;;;;2.47;1.07;;;;;;;-144.22;100.00;60274.75;6190198;28;20287;-44
2022/09/01 09:23:59;;;;;;;1.47;0.90;;;;;;;-144.22;100.00;60274.75;6199932;28;20613;-41
2022/09/01 09:27:02;;;;;;;1.53;1.17;;;;;;;-144.22;100.00;60274.75;6203055;28;20232;-40
2022/09/01 09:30:15;;;;;;;3.23;1.07;;;;;;;-144.22;100.00;60274.75;6205061;28;20567;-42
2022/09/01 09:33:46;;;;;;;3.13;1.20;;;;;;;-144.22;100.00;60274.75;6203762;28;20216;-43
2022/09/01 09:36:54;;;;;;;1.37;0.80;;;;;;;-144.22;100.00;60274.75;6202923;28;20339;-43
2022/09/01 09:40:13;;;;;;;1.63;0.93;;;;;;;-144.22;100.00;60274.75;6203776;28;20319;-40
2022/09/01 09:43:19;;;;;;;3.90;1.10;;;;;;;-144.22;100.00;60274.75;6204420;28;20228;-41
2022/09/01 09:46:31;;;;;;;0.90;0.80;;;;;;;-144.22;100.00;60274.75;6202656;28;20769;-41
2022/09/01 09:49:33;;;;;;;1.87;0.97;;;;;;;-144.22;100.00;60274.75;6200277;28;20236;-41
2022/09/01 09:52:45;;;;;;;2.00;1.30;;;;;;;-144.22;100.00;60274.75;6181773;28;20229;-41
2022/09/01 09:56:00;;;;;;;1.17;0.83;;;;;;;-144.22;100.00;60274.75;6204293;28;20299;-40
2022/09/01 09:59:35;;;;;;;3.80;0.80;;;;;;;-144.22;100.00;60274.75;6156304;28;20704;-41
2022/09/01 10:03:05;;;;;;;2.10;1.00;;;;;;;-144.22;100.00;60274.75;6155483;28;20244;-41
2022/09/01 10:06:11;;;;;;;1.23;0.90;;;;;;;-144.22;100.00;60274.75;6204285;28;20221;-40
2022/09/01 10:09:16;;;;;;;1.90;0.97;;;;;;;-144.22;100.00;60274.75;6156340;28;20206;-42
2022/09/01 10:12:19;;;;;;;0.80;0.60;;;;;;;-144.22;100.00;60274.75;6202316;28;20681;-43
2022/09/01 10:15:25;;;;;;;1.13;0.97;;;;;;;-144.22;100.00;60274.75;6208591;28;20243;-42
2022/09/01 10:18:38;;;;;;;1.33;0.80;;;;;;;-144.22;100.00;60274.75;6203552;28;20320;-41
2022/09/01 10:21:46;;;;;;;1.37;0.77;;;;;;;-144.22;100.00;60274.75;6196803;28;20232;-41
2022/09/01 10:24:48;;;;;;;0.73;0.70;;;;;;;-144.22;100.00;60274.75;6191482;28;20241;-41
2022/09/01 10:28:13;;;;;;;1.00;0.90;;;;;;;-144.22;100.00;60274.75;6187946;28;20232;-43
2022/09/01 10:31:22;;;;;;;2.10;0.80;;;;;;;-144.22;100.00;60274.75;6203417;28;20244;-42
2022/09/01 10:34:36;;;;;;;1.47;0.87;;;;;;;-144.22;100.00;60274.75;6203703;28;20237;-41
2022/09/01 10:37:40;;;;;;;1.43;0.80;;;;;;;-144.22;100.00;60274.75;6202191;28;20758;-40
2022/09/01 10:40:47;;;;;;;1.27;0.80;;;;;;;-144.22;100.00;60274.75;6203661;28;20291;-42
2022/09/01 10:43:51;;;;;;;1.33;0.93;;;;;;;-144.22;100.00;60274.75;6203750;28;20921;-42
2022/09/01 10:46:53;;;;;;;3.03;1.00;;;;;;;-144.22;100.00;60274.75;6203504;28;20755;-42
2022/09/01 10:50:21;;;;;;;0.80;0.80;;;;;;;-144.22;100.00;60274.75;6200747;28;20709;-41
2022/09/01 10:53:32;;;;;;;1.43;0.87;;;;;;;-144.22;100.00;60274.75;6203573;28;20236;-42
2022/09/01 10:56:49;;;;;;;1.97;1.00;;;;;;;-144.22;100.00;60274.75;6208015;28;20460;-41
2022/09/01 10:59:56;;;;;;;2.80;1.10;;;;;;;-144.22;100.00;60274.75;6208464;28;20323;-41
2022/09/01 11:03:11;;;;;;;2.63;1.00;;;;;;;-144.22;100.00;60274.75;6207601;28;20604;-41
2022/09/01 11:06:42;;;;;;;1.30;1.00;;;;;;;-144.22;100.00;60274.75;6207211;28;20231;-42
2022/09/01 11:10:30;;;;;;;1.07;0.80;;;;;;;-144.22;100.00;60274.75;6207507;28;20247;-41
2022/09/01 11:14:02;;;;;;;2.20;0.90;;;;;;;-144.22;100.00;60274.75;6208411;28;20776;-41
2022/09/01 11:17:23;;;;;;;4.00;1.00;;;;;;;-144.22;100.00;60274.75;6206681;28;20240;-42
2022/09/01 11:20:32;;;;;;;1.57;0.80;;;;;;;-144.22;100.00;60274.75;6196740;28;20233;-41
2022/09/01 11:23:35;;;;;;;1.03;0.87;;;;;;;-144.22;100.00;60274.75;6194598;28;20330;-40
2022/09/01 11:26:47;;;;;;;4.40;1.13;;;;;;;-144.22;100.00;60274.75;6208599;28;20310;-41
2022/09/01 11:30:08;;;;;;;1.40;0.83;;;;;;;-144.22;100.00;60274.75;6207186;28;20628;-41
2022/09/01 11:33:16;;;;;;;1.10;1.00;;;;;;;-144.22;100.00;60274.75;6206240;28;20225;-41
2022/09/01 11:36:30;;;;;;;1.80;1.00;;;;;;;-144.22;100.00;60274.75;6206725;28;20229;-41
2022/09/01 11:39:39;;;;;;;1.42;1.05;;;;;;;-144.22;100.00;60274.75;6205945;28;20240;-43
2022/09/01 11:42:44;;;;;;;1.23;0.88;;;;;;;-144.22;100.00;60274.75;6207283;28;20605;-41
2022/09/01 11:45:57;;;;;;;2.47;0.97;;;;;;;-144.22;100.00;60274.75;6206799;28;20233;-41
2022/09/01 11:49:06;;;;;;;1.30;0.90;;;;;;;-144.22;100.00;60274.75;6206997;28;20240;-41
2022/09/01 11:52:16;;;;;;;1.23;0.80;;;;;;;-144.22;100.00;60274.75;6203454;28;20235;-42
2022/09/01 11:55:39;;;;;;;1.40;0.73;;;;;;;-144.22;100.00;60274.75;6205520;28;20243;-41
2022/09/01 11:58:42;;;;;;;2.53;1.00;;;;;;;-144.22;100.00;60274.75;6196882;28;20275;-41
2022/09/01 12:01:46;;;;;;;1.67;0.87;;;;;;;-144.22;100.00;60274.75;6205480;28;20763;-42
2022/09/01 12:04:49;;;;;;;1.10;0.90;;;;;;;-144.22;100.00;60274.75;6196884;28;20232;-41
2022/09/01 12:07:52;;;;;;;1.63;0.85;;;;;;;-144.22;100.00;60274.75;6205624;28;20800;-41
2022/09/01 12:11:08;;;;;;;1.27;0.98;;;;;;;-144.22;100.00;60274.75;6206613;28;20715;-42
2022/09/01 12:14:18;;;;;;;0.80;0.77;;;;;;;-144.22;100.00;60274.75;6206034;28;20224;-42
2022/09/01 12:17:20;;;;;;;1.87;1.00;;;;;;;-144.22;100.00;60274.75;6205625;28;20221;-41
2022/09/01 12:20:27;;;;;;;1.27;1.00;;;;;;;-144.22;100.00;60274.75;6196825;28;20336;-41
2022/09/01 12:23:44;;;;;;;1.80;0.90;;;;;;;-144.22;100.00;60274.75;6162037;28;20241;-41
2022/09/01 12:26:57;;;;;;;2.33;0.90;;;;;;;-144.22;100.00;60274.75;6204986;28;20244;-44
2022/09/01 12:30:10;;;;;;;2.05;0.90;;;;;;;-144.22;100.00;60274.75;6204455;28;20244;-43
2022/09/01 12:33:17;;;;;;;0.95;0.85;;;;;;;-144.22;100.00;60274.75;6206295;28;20237;-43
2022/09/01 12:36:34;;;;;;;1.45;0.70;;;;;;;-144.22;100.00;60274.75;6205425;28;20232;-42
2022/09/01 12:39:41;;;;;;;0.95;0.70;;;;;;;-144.22;100.00;60274.75;6209711;28;20221;-42
2022/09/01 12:42:50;;;;;;;3.58;1.00;;;;;;;-144.22;100.00;60274.75;6206072;28;20259;-42
2022/09/01 12:45:52;;;;;;;1.10;0.80;;;;;;;-144.22;100.00;60274.75;6205150;28;20224;-43
2022/09/01 12:49:24;;;;;;;0.93;0.80;;;;;;;-144.22;100.00;60274.75;6203779;28;20239;-41
2022/09/01 12:52:31;;;;;;;1.38;0.80;;;;;;;-144.22;100.00;60274.75;6195419;28;20700;-42
2022/09/01 12:55:35;;;;;;;1.85;1.05;;;;;;;-144.22;100.00;60274.75;6186068;28;20232;-42
2022/09/01 12:59:13;;;;;;;1.30;0.80;;;;;;;-144.22;100.00;60274.75;6204695;28;20282;-43
2022/09/01 13:02:44;;;;;;;2.03;0.82;;;;;;;-144.22;100.00;60274.75;6204613;28;20228;-41
2022/09/01 13:05:51;;;;;;;1.00;0.80;;;;;;;-144.22;100.00;60274.75;6205036;28;20228;-42
2022/09/01 13:08:53;;;;;;;1.02;0.70;;;;;;;-144.22;100.00;60274.75;6204805;28;20985;-41
2022/09/01 13:12:18;;;;;;;1.80;0.70;;;;;;;-144.22;100.00;60274.75;6204132;28;20224;-43
2022/09/01 13:15:21;;;;;;;0.85;0.70;;;;;;;-144.22;100.00;60274.75;6204366;28;20251;-41
2022/09/01 13:18:27;;;;;;;2.55;0.77;;;;;;;-144.22;100.00;60274.75;6205492;28;20308;-41
2022/09/01 13:21:35;;;;;;;1.60;0.80;;;;;;;-144.22;100.00;60274.75;6185129;28;20597;-41
2022/09/01 13:24:38;;;;;;;2.58;0.82;;;;;;;-144.22;100.00;60274.75;6197701;28;20224;-41
2022/09/01 13:27:43;;;;;;;2.20;0.93;;;;;;;-144.22;100.00;60274.75;6205456;28;20233;-40
2022/09/01 13:30:52;;;;;;;1.27;0.70;;;;;;;28.23;100.00;60274.75;6204389;28;20233;-41
2022/09/01 13:34:14;;;;;;;0.60;0.60;;;;;;;-144.22;100.00;60274.75;6204430;28;20337;-41
2022/09/01 13:37:24;;;;;;;1.00;0.57;;;;;;;-144.22;100.00;60274.75;6204959;28;20232;-43
2022/09/01 13:40:26;;;;;;;2.70;0.77;;;;;;;-144.22;100.00;60274.75;6204716;28;20696;-42
2022/09/01 13:43:30;;;;;;;1.88;0.88;;;;;;;-144.22;100.00;60274.75;6204285;28;20297;-41
2022/09/01 13:46:32;;;;;;;0.85;0.82;;;;;;;-144.22;100.00;60274.75;6203557;28;20732;-41
2022/09/01 13:49:34;;;;;;;2.72;0.90;;;;;;;-144.22;100.00;60274.75;6200814;28;20607;-41
2022/09/01 13:52:57;;;;;;;1.30;0.70;;;;;;;-144.22;100.00;60274.75;6203917;28;20243;-42
2022/09/01 13:55:59;;;;;;;1.02;0.73;;;;;;;-144.22;100.00;60274.75;6204334;28;20830;-42
2022/09/01 13:59:02;;;;;;;2.25;0.68;;;;;;;-144.22;100.00;60274.75;6204196;28;20232;-42
2022/09/01 14:02:19;;;;;;;2.63;0.77;;;;;;;-144.22;100.00;60274.75;6204111;28;20733;-42
2022/09/01 14:05:27;;;;;;;0.73;0.70;;;;;;;-144.22;100.00;60274.75;6204037;28;20231;-41
2022/09/01 14:08:30;;;;;;;0.82;0.50;;;;;;;-144.22;100.00;60274.75;6204849;28;20237;-41
2022/09/01 14:11:32;;;;;;;0.40;0.40;;;;;;;-144.22;100.00;60274.75;6203782;28;20224;-42
2022/09/01 14:14:36;;;;;;;1.92;0.93;;;;;;;-144.22;100.00;60274.75;6204351;28;20586;-42
2022/09/01 14:17:59;;;;;;;1.15;0.70;;;;;;;-144.22;100.00;60274.75;6203749;28;20726;-43
2022/09/01 14:21:02;;;;;;;1.10;0.75;;;;;;;-144.22;100.00;60274.75;6188794;28;20232;-41
2022/09/01 14:24:04;;;;;;;1.85;0.50;;;;;;;-144.22;100.00;60274.75;6158830;28;20205;-42
2022/09/01 14:27:11;;;;;;;0.93;0.60;;;;;;;-144.22;100.00;60274.75;6204541;28;20606;-43